sensor_id;sensor_type;location;lat;lon;timestamp;temperature;humidity
5126;DHT22;2581;53.112;8.896;2022-07-23T00:00:20;19.00;99.90
5126;DHT22;2581;53.112;8.896;2022-07-23T00:02:46;19.00;99.90
5126;DHT22;2581;53.112;8.896;2022-07-23T00:05:12;19.00;99.90
5126;DHT22;2581;53.112;8.896;2022-07-23T00:07:38;19.00;99.90
5126;DHT22;2581;53.112;8.896;2022-07-23T00:10:04;19.00;99.90
5126;DHT22;2581;53.112;8.896;2022-07-23T00:12:30;19.00;99.90
5126;DHT22;2581;53.112;8.896;2022-07-23T00:14:56;18.90;99.90
5126;DHT22;2581;53.112;8.896;2022-07-23T00:17:22;18.90;99.90
5126;DHT22;2581;53.112;8.896;2022-07-23T00:19:47;18.90;99.90
5126;DHT22;2581;53.112;8.896;2022-07-23T00:22:13;18.90;99.90
5126;DHT22;2581;53.112;8.896;2022-07-23T00:24:39;18.90;99.90
5126;DHT22;2581;53.112;8.896;2022-07-23T00:27:04;18.90;99.90
5126;DHT22;2581;53.112;8.896;2022-07-23T00:29:30;18.80;99.90
5126;DHT22;2581;53.112;8.896;2022-07-23T00:31:56;18.80;99.90
5126;DHT22;2581;53.112;8.896;2022-07-23T00:34:21;18.80;99.90
5126;DHT22;2581;53.112;8.896;2022-07-23T00:36:47;18.70;99.90
5126;DHT22;2581;53.112;8.896;2022-07-23T00:39:13;18.70;99.90
5126;DHT22;2581;53.112;8.896;2022-07-23T00:41:38;18.60;99.90
5126;DHT22;2581;53.112;8.896;2022-07-23T00:44:20;18.60;99.90
5126;DHT22;2581;53.112;8.896;2022-07-23T00:47:00;18.60;99.90
5126;DHT22;2581;53.112;8.896;2022-07-23T00:49:30;18.60;99.90
5126;DHT22;2581;53.112;8.896;2022-07-23T00:51:57;18.50;99.90
5126;DHT22;2581;53.112;8.896;2022-07-23T00:54:27;18.50;99.90
5126;DHT22;2581;53.112;8.896;2022-07-23T00:56:53;18.50;99.90
5126;DHT22;2581;53.112;8.896;2022-07-23T00:59:19;18.50;99.90
5126;DHT22;2581;53.112;8.896;2022-07-23T01:01:45;18.50;99.90
5126;DHT22;2581;53.112;8.896;2022-07-23T01:04:14;18.40;99.90
5126;DHT22;2581;53.112;8.896;2022-07-23T01:06:40;18.40;99.90
5126;DHT22;2581;53.112;8.896;2022-07-23T01:09:07;18.40;99.90
5126;DHT22;2581;53.112;8.896;2022-07-23T01:11:34;18.30;99.90
5126;DHT22;2581;53.112;8.896;2022-07-23T01:14:11;18.40;99.90
5126;DHT22;2581;53.112;8.896;2022-07-23T01:16:37;18.40;99.90
5126;DHT22;2581;53.112;8.896;2022-07-23T01:19:03;18.40;99.90
5126;DHT22;2581;53.112;8.896;2022-07-23T01:21:35;18.40;99.90
5126;DHT22;2581;53.112;8.896;2022-07-23T01:24:01;18.40;99.90
5126;DHT22;2581;53.112;8.896;2022-07-23T01:26:27;18.40;99.90
5126;DHT22;2581;53.112;8.896;2022-07-23T01:28:52;18.30;99.90
5126;DHT22;2581;53.112;8.896;2022-07-23T01:31:18;18.40;99.90
5126;DHT22;2581;53.112;8.896;2022-07-23T01:33:44;18.40;99.90
5126;DHT22;2581;53.112;8.896;2022-07-23T01:36:10;18.30;99.90
5126;DHT22;2581;53.112;8.896;2022-07-23T01:38:36;18.30;99.90
5126;DHT22;2581;53.112;8.896;2022-07-23T01:41:02;18.20;99.90
5126;DHT22;2581;53.112;8.896;2022-07-23T01:43:27;18.20;99.90
5126;DHT22;2581;53.112;8.896;2022-07-23T01:45:53;18.20;99.90
5126;DHT22;2581;53.112;8.896;2022-07-23T01:48:18;18.10;99.90
5126;DHT22;2581;53.112;8.896;2022-07-23T01:50:46;18.10;99.90
5126;DHT22;2581;53.112;8.896;2022-07-23T01:53:13;18.10;99.90
5126;DHT22;2581;53.112;8.896;2022-07-23T01:55:39;18.10;99.90
5126;DHT22;2581;53.112;8.896;2022-07-23T01:58:05;18.10;99.90
5126;DHT22;2581;53.112;8.896;2022-07-23T02:00:31;18.10;99.90
5126;DHT22;2581;53.112;8.896;2022-07-23T02:02:56;18.00;99.90
5126;DHT22;2581;53.112;8.896;2022-07-23T02:05:24;18.00;99.90
5126;DHT22;2581;53.112;8.896;2022-07-23T02:07:50;18.10;99.90
5126;DHT22;2581;53.112;8.896;2022-07-23T02:10:16;18.10;99.90
5126;DHT22;2581;53.112;8.896;2022-07-23T02:12:42;18.10;99.90
5126;DHT22;2581;53.112;8.896;2022-07-23T02:15:08;18.10;99.90
5126;DHT22;2581;53.112;8.896;2022-07-23T02:17:34;18.10;99.90
5126;DHT22;2581;53.112;8.896;2022-07-23T02:19:59;18.10;99.90
5126;DHT22;2581;53.112;8.896;2022-07-23T02:22:25;18.10;99.90
5126;DHT22;2581;53.112;8.896;2022-07-23T02:24:50;18.20;99.90
5126;DHT22;2581;53.112;8.896;2022-07-23T02:27:16;18.20;99.90
5126;DHT22;2581;53.112;8.896;2022-07-23T02:29:42;18.20;99.90
5126;DHT22;2581;53.112;8.896;2022-07-23T02:32:07;18.20;99.90
5126;DHT22;2581;53.112;8.896;2022-07-23T02:34:33;18.30;99.90
5126;DHT22;2581;53.112;8.896;2022-07-23T02:36:59;18.30;99.90
5126;DHT22;2581;53.112;8.896;2022-07-23T02:39:24;18.30;99.90
5126;DHT22;2581;53.112;8.896;2022-07-23T02:41:50;18.30;99.90
5126;DHT22;2581;53.112;8.896;2022-07-23T02:44:16;18.40;99.90
5126;DHT22;2581;53.112;8.896;2022-07-23T02:46:41;18.40;99.90
5126;DHT22;2581;53.112;8.896;2022-07-23T02:49:07;18.30;99.90
5126;DHT22;2581;53.112;8.896;2022-07-23T02:51:33;18.40;99.90
5126;DHT22;2581;53.112;8.896;2022-07-23T02:53:58;18.30;99.90
5126;DHT22;2581;53.112;8.896;2022-07-23T02:56:24;18.30;99.90
5126;DHT22;2581;53.112;8.896;2022-07-23T02:58:50;18.30;99.90
5126;DHT22;2581;53.112;8.896;2022-07-23T03:01:15;18.30;99.90
5126;DHT22;2581;53.112;8.896;2022-07-23T03:03:41;18.20;99.90
5126;DHT22;2581;53.112;8.896;2022-07-23T03:06:06;18.30;99.90
5126;DHT22;2581;53.112;8.896;2022-07-23T03:08:32;18.20;99.90
5126;DHT22;2581;53.112;8.896;2022-07-23T03:10:58;18.20;99.90
5126;DHT22;2581;53.112;8.896;2022-07-23T03:13:23;18.10;99.90
5126;DHT22;2581;53.112;8.896;2022-07-23T03:15:49;18.20;99.90
5126;DHT22;2581;53.112;8.896;2022-07-23T03:18:15;18.20;99.90
5126;DHT22;2581;53.112;8.896;2022-07-23T03:20:40;18.20;99.90
5126;DHT22;2581;53.112;8.896;2022-07-23T03:23:06;18.20;99.90
5126;DHT22;2581;53.112;8.896;2022-07-23T03:25:32;18.20;99.90
5126;DHT22;2581;53.112;8.896;2022-07-23T03:27:57;18.20;99.90
5126;DHT22;2581;53.112;8.896;2022-07-23T03:30:23;18.20;99.90
5126;DHT22;2581;53.112;8.896;2022-07-23T03:32:49;18.20;99.90
5126;DHT22;2581;53.112;8.896;2022-07-23T03:35:14;18.20;99.90
5126;DHT22;2581;53.112;8.896;2022-07-23T03:37:40;18.20;99.90
5126;DHT22;2581;53.112;8.896;2022-07-23T03:40:06;18.10;99.90
5126;DHT22;2581;53.112;8.896;2022-07-23T03:42:32;18.10;99.90
5126;DHT22;2581;53.112;8.896;2022-07-23T03:44:58;18.10;99.90
5126;DHT22;2581;53.112;8.896;2022-07-23T03:47:23;18.10;99.90
5126;DHT22;2581;53.112;8.896;2022-07-23T03:49:49;18.00;99.90
5126;DHT22;2581;53.112;8.896;2022-07-23T03:52:15;18.00;99.90
5126;DHT22;2581;53.112;8.896;2022-07-23T03:54:41;18.00;99.90
5126;DHT22;2581;53.112;8.896;2022-07-23T03:57:06;17.90;99.90
5126;DHT22;2581;53.112;8.896;2022-07-23T03:59:32;17.90;99.90
5126;DHT22;2581;53.112;8.896;2022-07-23T04:01:58;17.90;99.90
5126;DHT22;2581;53.112;8.896;2022-07-23T04:04:24;17.90;99.90
5126;DHT22;2581;53.112;8.896;2022-07-23T04:06:49;17.90;99.90
5126;DHT22;2581;53.112;8.896;2022-07-23T04:09:15;17.80;99.90
5126;DHT22;2581;53.112;8.896;2022-07-23T04:11:41;17.80;99.90
5126;DHT22;2581;53.112;8.896;2022-07-23T04:14:06;17.90;99.90
5126;DHT22;2581;53.112;8.896;2022-07-23T04:16:32;17.80;99.90
5126;DHT22;2581;53.112;8.896;2022-07-23T04:18:58;17.80;99.90
5126;DHT22;2581;53.112;8.896;2022-07-23T04:21:24;17.80;99.90
5126;DHT22;2581;53.112;8.896;2022-07-23T04:23:50;17.80;99.90
5126;DHT22;2581;53.112;8.896;2022-07-23T04:26:15;17.80;99.90
5126;DHT22;2581;53.112;8.896;2022-07-23T04:28:41;17.80;99.90
5126;DHT22;2581;53.112;8.896;2022-07-23T04:31:07;17.80;99.90
5126;DHT22;2581;53.112;8.896;2022-07-23T04:33:33;17.80;99.90
5126;DHT22;2581;53.112;8.896;2022-07-23T04:35:59;17.80;99.90
5126;DHT22;2581;53.112;8.896;2022-07-23T04:38:25;17.80;99.90
5126;DHT22;2581;53.112;8.896;2022-07-23T04:40:50;17.80;99.90
5126;DHT22;2581;53.112;8.896;2022-07-23T04:43:16;17.80;99.90
5126;DHT22;2581;53.112;8.896;2022-07-23T04:45:42;17.80;99.90
5126;DHT22;2581;53.112;8.896;2022-07-23T04:48:07;17.80;99.90
5126;DHT22;2581;53.112;8.896;2022-07-23T04:50:33;17.80;99.90
5126;DHT22;2581;53.112;8.896;2022-07-23T04:52:59;17.80;99.90
5126;DHT22;2581;53.112;8.896;2022-07-23T04:55:25;17.80;99.90
5126;DHT22;2581;53.112;8.896;2022-07-23T04:57:50;17.80;99.90
5126;DHT22;2581;53.112;8.896;2022-07-23T05:00:16;17.80;99.90
5126;DHT22;2581;53.112;8.896;2022-07-23T05:02:42;17.80;99.90
5126;DHT22;2581;53.112;8.896;2022-07-23T05:05:08;17.80;99.90
5126;DHT22;2581;53.112;8.896;2022-07-23T05:07:33;17.80;99.90
5126;DHT22;2581;53.112;8.896;2022-07-23T05:09:59;17.80;99.90
5126;DHT22;2581;53.112;8.896;2022-07-23T05:12:25;17.80;99.90
5126;DHT22;2581;53.112;8.896;2022-07-23T05:14:50;17.90;99.90
5126;DHT22;2581;53.112;8.896;2022-07-23T05:17:18;17.90;99.90
5126;DHT22;2581;53.112;8.896;2022-07-23T05:19:44;17.90;99.90
5126;DHT22;2581;53.112;8.896;2022-07-23T05:22:09;17.90;99.90
5126;DHT22;2581;53.112;8.896;2022-07-23T05:24:35;17.90;99.90
5126;DHT22;2581;53.112;8.896;2022-07-23T05:27:01;17.90;99.90
5126;DHT22;2581;53.112;8.896;2022-07-23T05:29:26;17.90;99.90
5126;DHT22;2581;53.112;8.896;2022-07-23T05:31:52;17.90;99.90
5126;DHT22;2581;53.112;8.896;2022-07-23T05:34:17;17.90;99.90
5126;DHT22;2581;53.112;8.896;2022-07-23T05:36:43;17.90;99.90
5126;DHT22;2581;53.112;8.896;2022-07-23T05:39:09;17.90;99.90
5126;DHT22;2581;53.112;8.896;2022-07-23T05:41:34;18.10;99.90
5126;DHT22;2581;53.112;8.896;2022-07-23T05:44:00;18.10;99.90
5126;DHT22;2581;53.112;8.896;2022-07-23T05:46:26;18.20;99.90
5126;DHT22;2581;53.112;8.896;2022-07-23T05:48:52;18.20;99.90
5126;DHT22;2581;53.112;8.896;2022-07-23T05:51:22;18.30;99.90
5126;DHT22;2581;53.112;8.896;2022-07-23T05:53:48;18.40;99.90
5126;DHT22;2581;53.112;8.896;2022-07-23T05:56:14;18.50;99.90
5126;DHT22;2581;53.112;8.896;2022-07-23T05:58:40;18.50;99.90
5126;DHT22;2581;53.112;8.896;2022-07-23T06:01:05;18.50;99.90
5126;DHT22;2581;53.112;8.896;2022-07-23T06:03:31;18.50;99.90
5126;DHT22;2581;53.112;8.896;2022-07-23T06:05:57;18.50;99.90
5126;DHT22;2581;53.112;8.896;2022-07-23T06:08:22;18.60;99.90
5126;DHT22;2581;53.112;8.896;2022-07-23T06:10:48;18.60;99.90
5126;DHT22;2581;53.112;8.896;2022-07-23T06:13:14;18.70;99.90
5126;DHT22;2581;53.112;8.896;2022-07-23T06:15:39;18.80;99.90
5126;DHT22;2581;53.112;8.896;2022-07-23T06:18:05;18.80;99.90
5126;DHT22;2581;53.112;8.896;2022-07-23T06:20:31;18.80;99.90
5126;DHT22;2581;53.112;8.896;2022-07-23T06:22:56;18.90;99.90
5126;DHT22;2581;53.112;8.896;2022-07-23T06:25:22;19.00;99.90
5126;DHT22;2581;53.112;8.896;2022-07-23T06:27:48;19.00;99.90
5126;DHT22;2581;53.112;8.896;2022-07-23T06:30:15;19.00;99.90
5126;DHT22;2581;53.112;8.896;2022-07-23T06:32:42;19.00;99.90
5126;DHT22;2581;53.112;8.896;2022-07-23T06:35:08;19.10;99.90
5126;DHT22;2581;53.112;8.896;2022-07-23T06:37:34;19.20;99.90
5126;DHT22;2581;53.112;8.896;2022-07-23T06:39:59;19.30;99.90
5126;DHT22;2581;53.112;8.896;2022-07-23T06:42:25;19.30;99.90
5126;DHT22;2581;53.112;8.896;2022-07-23T06:44:50;19.20;99.90
5126;DHT22;2581;53.112;8.896;2022-07-23T06:47:16;19.20;99.90
5126;DHT22;2581;53.112;8.896;2022-07-23T06:49:42;19.10;99.90
5126;DHT22;2581;53.112;8.896;2022-07-23T06:52:08;19.00;99.90
5126;DHT22;2581;53.112;8.896;2022-07-23T06:54:34;19.00;99.90
5126;DHT22;2581;53.112;8.896;2022-07-23T06:57:00;18.90;99.90
5126;DHT22;2581;53.112;8.896;2022-07-23T06:59:25;19.00;99.90
5126;DHT22;2581;53.112;8.896;2022-07-23T07:01:51;19.00;99.90
5126;DHT22;2581;53.112;8.896;2022-07-23T07:04:17;19.10;99.90
5126;DHT22;2581;53.112;8.896;2022-07-23T07:06:42;19.10;99.90
5126;DHT22;2581;53.112;8.896;2022-07-23T07:09:08;19.20;99.90
5126;DHT22;2581;53.112;8.896;2022-07-23T07:11:33;19.30;99.90
5126;DHT22;2581;53.112;8.896;2022-07-23T07:13:59;19.40;99.90
5126;DHT22;2581;53.112;8.896;2022-07-23T07:16:25;19.40;99.90
5126;DHT22;2581;53.112;8.896;2022-07-23T07:18:50;19.40;99.90
5126;DHT22;2581;53.112;8.896;2022-07-23T07:21:16;19.40;99.90
5126;DHT22;2581;53.112;8.896;2022-07-23T07:23:42;19.40;99.90
5126;DHT22;2581;53.112;8.896;2022-07-23T07:26:07;19.40;99.90
5126;DHT22;2581;53.112;8.896;2022-07-23T07:28:33;19.40;99.90
5126;DHT22;2581;53.112;8.896;2022-07-23T07:30:58;19.40;99.90
5126;DHT22;2581;53.112;8.896;2022-07-23T07:33:24;19.50;99.90
5126;DHT22;2581;53.112;8.896;2022-07-23T07:35:50;19.50;99.90
5126;DHT22;2581;53.112;8.896;2022-07-23T07:38:15;19.60;99.90
5126;DHT22;2581;53.112;8.896;2022-07-23T07:40:41;19.60;99.90
5126;DHT22;2581;53.112;8.896;2022-07-23T07:43:07;19.70;99.90
5126;DHT22;2581;53.112;8.896;2022-07-23T07:45:32;19.70;99.90
5126;DHT22;2581;53.112;8.896;2022-07-23T07:47:58;19.80;99.90
5126;DHT22;2581;53.112;8.896;2022-07-23T07:50:24;19.80;99.90
5126;DHT22;2581;53.112;8.896;2022-07-23T07:52:50;19.80;99.90
5126;DHT22;2581;53.112;8.896;2022-07-23T07:55:16;19.80;99.90
5126;DHT22;2581;53.112;8.896;2022-07-23T07:57:42;19.90;99.90
5126;DHT22;2581;53.112;8.896;2022-07-23T08:00:08;19.90;99.90
5126;DHT22;2581;53.112;8.896;2022-07-23T08:02:46;19.80;99.90
5126;DHT22;2581;53.112;8.896;2022-07-23T08:05:13;19.80;99.90
5126;DHT22;2581;53.112;8.896;2022-07-23T08:07:39;19.70;99.90
5126;DHT22;2581;53.112;8.896;2022-07-23T08:10:09;19.70;99.90
5126;DHT22;2581;53.112;8.896;2022-07-23T08:12:55;19.70;99.90
5126;DHT22;2581;53.112;8.896;2022-07-23T08:15:22;19.70;99.90
5126;DHT22;2581;53.112;8.896;2022-07-23T08:17:49;19.80;99.90
5126;DHT22;2581;53.112;8.896;2022-07-23T08:20:16;19.80;99.90
5126;DHT22;2581;53.112;8.896;2022-07-23T08:25:15;20.00;99.90
5126;DHT22;2581;53.112;8.896;2022-07-23T08:27:42;20.00;99.90
5126;DHT22;2581;53.112;8.896;2022-07-23T08:30:09;20.00;99.90
5126;DHT22;2581;53.112;8.896;2022-07-23T08:33:09;20.00;99.90
5126;DHT22;2581;53.112;8.896;2022-07-23T08:35:38;20.00;99.90
5126;DHT22;2581;53.112;8.896;2022-07-23T08:38:09;20.00;99.90
5126;DHT22;2581;53.112;8.896;2022-07-23T08:40:42;20.00;99.90
5126;DHT22;2581;53.112;8.896;2022-07-23T08:43:13;20.00;99.90
5126;DHT22;2581;53.112;8.896;2022-07-23T08:45:41;19.90;99.90
5126;DHT22;2581;53.112;8.896;2022-07-23T08:48:19;20.00;99.90
5126;DHT22;2581;53.112;8.896;2022-07-23T08:50:53;20.10;99.90
5126;DHT22;2581;53.112;8.896;2022-07-23T08:53:20;20.10;99.90
5126;DHT22;2581;53.112;8.896;2022-07-23T08:55:51;20.10;99.90
5126;DHT22;2581;53.112;8.896;2022-07-23T08:58:18;20.20;99.90
5126;DHT22;2581;53.112;8.896;2022-07-23T09:00:44;20.20;99.90
5126;DHT22;2581;53.112;8.896;2022-07-23T09:03:19;20.30;99.90
5126;DHT22;2581;53.112;8.896;2022-07-23T09:05:44;20.40;99.90
5126;DHT22;2581;53.112;8.896;2022-07-23T09:08:15;20.40;99.90
5126;DHT22;2581;53.112;8.896;2022-07-23T09:15:56;20.40;99.90
5126;DHT22;2581;53.112;8.896;2022-07-23T09:18:38;20.40;99.90
5126;DHT22;2581;53.112;8.896;2022-07-23T09:26:33;20.60;99.90
5126;DHT22;2581;53.112;8.896;2022-07-23T09:29:20;20.70;99.90
5126;DHT22;2581;53.112;8.896;2022-07-23T09:34:27;21.00;99.90
5126;DHT22;2581;53.112;8.896;2022-07-23T09:36:58;21.00;99.90
5126;DHT22;2581;53.112;8.896;2022-07-23T09:39:33;21.10;99.90
5126;DHT22;2581;53.112;8.896;2022-07-23T09:42:22;21.20;99.90
5126;DHT22;2581;53.112;8.896;2022-07-23T09:44:52;21.20;99.90
5126;DHT22;2581;53.112;8.896;2022-07-23T09:47:19;21.20;99.90
5126;DHT22;2581;53.112;8.896;2022-07-23T09:50:06;21.30;99.90
5126;DHT22;2581;53.112;8.896;2022-07-23T09:52:36;21.40;99.90
5126;DHT22;2581;53.112;8.896;2022-07-23T09:55:04;21.50;99.90
5126;DHT22;2581;53.112;8.896;2022-07-23T09:57:31;21.60;99.90
5126;DHT22;2581;53.112;8.896;2022-07-23T10:00:08;21.60;99.90
5126;DHT22;2581;53.112;8.896;2022-07-23T10:02:35;21.70;99.90
5126;DHT22;2581;53.112;8.896;2022-07-23T10:05:02;21.70;99.90
5126;DHT22;2581;53.112;8.896;2022-07-23T10:07:31;21.80;99.90
5126;DHT22;2581;53.112;8.896;2022-07-23T10:09:59;21.90;99.90
5126;DHT22;2581;53.112;8.896;2022-07-23T10:12:25;22.00;99.90
5126;DHT22;2581;53.112;8.896;2022-07-23T10:15:09;22.00;99.90
5126;DHT22;2581;53.112;8.896;2022-07-23T10:17:36;22.00;99.90
5126;DHT22;2581;53.112;8.896;2022-07-23T10:20:03;21.90;99.90
5126;DHT22;2581;53.112;8.896;2022-07-23T10:23:00;21.70;99.90
5126;DHT22;2581;53.112;8.896;2022-07-23T10:25:28;21.70;99.90
5126;DHT22;2581;53.112;8.896;2022-07-23T10:33:49;21.40;99.90
5126;DHT22;2581;53.112;8.896;2022-07-23T10:36:42;21.40;99.90
5126;DHT22;2581;53.112;8.896;2022-07-23T10:39:22;21.30;99.90
5126;DHT22;2581;53.112;8.896;2022-07-23T10:41:50;21.30;99.90
5126;DHT22;2581;53.112;8.896;2022-07-23T10:44:18;21.30;99.90
5126;DHT22;2581;53.112;8.896;2022-07-23T10:47:02;21.30;99.90
5126;DHT22;2581;53.112;8.896;2022-07-23T10:49:37;21.30;99.90
5126;DHT22;2581;53.112;8.896;2022-07-23T10:52:30;21.30;99.90
5126;DHT22;2581;53.112;8.896;2022-07-23T10:57:28;21.50;99.90
5126;DHT22;2581;53.112;8.896;2022-07-23T11:02:30;21.80;99.90
5126;DHT22;2581;53.112;8.896;2022-07-23T11:05:06;21.90;99.90
5126;DHT22;2581;53.112;8.896;2022-07-23T11:07:34;22.10;99.90
5126;DHT22;2581;53.112;8.896;2022-07-23T11:09:59;22.30;99.90
5126;DHT22;2581;53.112;8.896;2022-07-23T11:15:03;22.80;99.90
5126;DHT22;2581;53.112;8.896;2022-07-23T11:17:30;23.00;99.90
5126;DHT22;2581;53.112;8.896;2022-07-23T11:25:10;23.50;99.90
5126;DHT22;2581;53.112;8.896;2022-07-23T11:27:42;23.50;99.90
5126;DHT22;2581;53.112;8.896;2022-07-23T11:30:10;23.40;99.90
5126;DHT22;2581;53.112;8.896;2022-07-23T11:32:40;23.30;99.90
5126;DHT22;2581;53.112;8.896;2022-07-23T11:35:19;23.20;99.90
5126;DHT22;2581;53.112;8.896;2022-07-23T11:37:46;23.30;99.90
5126;DHT22;2581;53.112;8.896;2022-07-23T11:40:14;23.40;99.90
5126;DHT22;2581;53.112;8.896;2022-07-23T11:45:20;23.50;99.90
5126;DHT22;2581;53.112;8.896;2022-07-23T11:47:46;23.40;99.90
5126;DHT22;2581;53.112;8.896;2022-07-23T11:50:12;23.20;99.90
5126;DHT22;2581;53.112;8.896;2022-07-23T11:52:39;23.00;99.90
5126;DHT22;2581;53.112;8.896;2022-07-23T11:55:07;22.90;99.90
5126;DHT22;2581;53.112;8.896;2022-07-23T11:57:35;22.80;99.90
5126;DHT22;2581;53.112;8.896;2022-07-23T12:02:40;22.70;99.90
5126;DHT22;2581;53.112;8.896;2022-07-23T12:05:07;22.70;99.90
5126;DHT22;2581;53.112;8.896;2022-07-23T12:07:37;22.90;99.90
5126;DHT22;2581;53.112;8.896;2022-07-23T12:12:42;23.00;99.90
5126;DHT22;2581;53.112;8.896;2022-07-23T12:15:09;23.00;99.90
5126;DHT22;2581;53.112;8.896;2022-07-23T12:17:38;22.90;99.90
5126;DHT22;2581;53.112;8.896;2022-07-23T12:20:09;22.70;99.90
5126;DHT22;2581;53.112;8.896;2022-07-23T12:22:44;22.50;99.90
5126;DHT22;2581;53.112;8.896;2022-07-23T12:25:15;22.30;99.90
5126;DHT22;2581;53.112;8.896;2022-07-23T12:27:42;22.30;99.90
5126;DHT22;2581;53.112;8.896;2022-07-23T12:32:47;22.60;99.90
5126;DHT22;2581;53.112;8.896;2022-07-23T12:35:13;22.90;99.90
5126;DHT22;2581;53.112;8.896;2022-07-23T12:37:43;22.90;99.90
5126;DHT22;2581;53.112;8.896;2022-07-23T12:40:25;23.00;99.90
5126;DHT22;2581;53.112;8.896;2022-07-23T12:42:54;23.10;99.90
5126;DHT22;2581;53.112;8.896;2022-07-23T12:45:21;23.30;99.90
5126;DHT22;2581;53.112;8.896;2022-07-23T12:48:04;23.40;99.90
5126;DHT22;2581;53.112;8.896;2022-07-23T12:50:44;23.50;99.90
5126;DHT22;2581;53.112;8.896;2022-07-23T12:53:20;23.60;99.90
5126;DHT22;2581;53.112;8.896;2022-07-23T12:55:47;23.70;99.90
5126;DHT22;2581;53.112;8.896;2022-07-23T12:58:18;23.90;99.90
5126;DHT22;2581;53.112;8.896;2022-07-23T13:00:54;24.20;99.90
5126;DHT22;2581;53.112;8.896;2022-07-23T13:03:38;24.40;99.90
5126;DHT22;2581;53.112;8.896;2022-07-23T13:06:05;24.50;99.90
5126;DHT22;2581;53.112;8.896;2022-07-23T13:08:33;24.40;99.90
5126;DHT22;2581;53.112;8.896;2022-07-23T13:10:59;24.20;99.90
5126;DHT22;2581;53.112;8.896;2022-07-23T13:13:27;24.10;99.90
5126;DHT22;2581;53.112;8.896;2022-07-23T13:15:53;24.00;99.90
5126;DHT22;2581;53.112;8.896;2022-07-23T13:18:20;23.90;99.90
5126;DHT22;2581;53.112;8.896;2022-07-23T13:20:47;24.10;99.90
5126;DHT22;2581;53.112;8.896;2022-07-23T13:23:13;24.30;99.90
5126;DHT22;2581;53.112;8.896;2022-07-23T13:25:40;24.30;99.90
5126;DHT22;2581;53.112;8.896;2022-07-23T13:28:05;24.30;99.90
5126;DHT22;2581;53.112;8.896;2022-07-23T13:30:31;24.20;99.90
5126;DHT22;2581;53.112;8.896;2022-07-23T13:32:57;24.20;99.90
5126;DHT22;2581;53.112;8.896;2022-07-23T13:35:23;24.20;99.90
5126;DHT22;2581;53.112;8.896;2022-07-23T13:37:48;24.30;99.90
5126;DHT22;2581;53.112;8.896;2022-07-23T13:40:14;24.40;99.90
5126;DHT22;2581;53.112;8.896;2022-07-23T13:42:40;24.50;99.90
5126;DHT22;2581;53.112;8.896;2022-07-23T13:45:06;24.40;99.90
5126;DHT22;2581;53.112;8.896;2022-07-23T13:47:33;24.40;99.90
5126;DHT22;2581;53.112;8.896;2022-07-23T13:49:59;24.60;99.90
5126;DHT22;2581;53.112;8.896;2022-07-23T13:52:24;24.60;99.90
5126;DHT22;2581;53.112;8.896;2022-07-23T13:54:50;24.50;99.90
5126;DHT22;2581;53.112;8.896;2022-07-23T13:57:16;24.60;99.90
5126;DHT22;2581;53.112;8.896;2022-07-23T13:59:42;24.80;99.90
5126;DHT22;2581;53.112;8.896;2022-07-23T14:02:07;24.90;99.90
5126;DHT22;2581;53.112;8.896;2022-07-23T14:04:33;25.00;99.90
5126;DHT22;2581;53.112;8.896;2022-07-23T14:06:59;25.10;99.90
5126;DHT22;2581;53.112;8.896;2022-07-23T14:09:25;25.10;99.90
5126;DHT22;2581;53.112;8.896;2022-07-23T14:11:51;25.00;99.90
5126;DHT22;2581;53.112;8.896;2022-07-23T14:14:18;24.90;99.90
5126;DHT22;2581;53.112;8.896;2022-07-23T14:16:43;24.80;99.90
5126;DHT22;2581;53.112;8.896;2022-07-23T14:19:10;24.90;99.90
5126;DHT22;2581;53.112;8.896;2022-07-23T14:21:36;24.80;99.90
5126;DHT22;2581;53.112;8.896;2022-07-23T14:24:03;24.70;99.90
5126;DHT22;2581;53.112;8.896;2022-07-23T14:26:28;24.90;99.90
5126;DHT22;2581;53.112;8.896;2022-07-23T14:28:54;25.10;99.90
5126;DHT22;2581;53.112;8.896;2022-07-23T14:31:21;25.50;99.90
5126;DHT22;2581;53.112;8.896;2022-07-23T14:33:47;25.90;99.90
5126;DHT22;2581;53.112;8.896;2022-07-23T14:36:13;26.10;99.90
5126;DHT22;2581;53.112;8.896;2022-07-23T14:38:38;26.10;99.90
5126;DHT22;2581;53.112;8.896;2022-07-23T14:41:04;25.90;99.90
5126;DHT22;2581;53.112;8.896;2022-07-23T14:43:32;25.60;99.90
5126;DHT22;2581;53.112;8.896;2022-07-23T14:45:58;25.30;99.90
5126;DHT22;2581;53.112;8.896;2022-07-23T14:48:24;25.00;99.90
5126;DHT22;2581;53.112;8.896;2022-07-23T14:50:49;24.70;99.90
5126;DHT22;2581;53.112;8.896;2022-07-23T14:53:15;24.70;99.90
5126;DHT22;2581;53.112;8.896;2022-07-23T14:55:41;24.90;99.90
5126;DHT22;2581;53.112;8.896;2022-07-23T14:58:06;25.30;99.90
5126;DHT22;2581;53.112;8.896;2022-07-23T15:00:32;25.70;99.90
5126;DHT22;2581;53.112;8.896;2022-07-23T15:02:58;26.10;99.90
5126;DHT22;2581;53.112;8.896;2022-07-23T15:05:24;26.40;99.90
5126;DHT22;2581;53.112;8.896;2022-07-23T15:07:50;26.60;99.90
5126;DHT22;2581;53.112;8.896;2022-07-23T15:10:15;26.90;99.90
5126;DHT22;2581;53.112;8.896;2022-07-23T15:12:42;27.10;99.90
5126;DHT22;2581;53.112;8.896;2022-07-23T15:15:08;27.30;99.90
5126;DHT22;2581;53.112;8.896;2022-07-23T15:17:33;27.30;99.90
5126;DHT22;2581;53.112;8.896;2022-07-23T15:19:59;27.40;99.90
5126;DHT22;2581;53.112;8.896;2022-07-23T15:22:25;27.30;99.90
5126;DHT22;2581;53.112;8.896;2022-07-23T15:24:50;27.10;99.90
5126;DHT22;2581;53.112;8.896;2022-07-23T15:27:16;27.00;99.90
5126;DHT22;2581;53.112;8.896;2022-07-23T15:29:44;27.00;99.90
5126;DHT22;2581;53.112;8.896;2022-07-23T15:32:10;27.10;99.90
5126;DHT22;2581;53.112;8.896;2022-07-23T15:34:37;27.20;99.90
5126;DHT22;2581;53.112;8.896;2022-07-23T15:37:03;27.40;99.90
5126;DHT22;2581;53.112;8.896;2022-07-23T15:39:31;27.40;99.90
5126;DHT22;2581;53.112;8.896;2022-07-23T15:42:01;27.40;99.90
5126;DHT22;2581;53.112;8.896;2022-07-23T15:44:28;27.50;99.90
5126;DHT22;2581;53.112;8.896;2022-07-23T15:46:54;27.50;99.90
5126;DHT22;2581;53.112;8.896;2022-07-23T15:49:20;27.40;99.90
5126;DHT22;2581;53.112;8.896;2022-07-23T15:51:46;27.20;99.90
5126;DHT22;2581;53.112;8.896;2022-07-23T15:54:12;27.00;99.90
5126;DHT22;2581;53.112;8.896;2022-07-23T15:56:38;26.90;99.90
5126;DHT22;2581;53.112;8.896;2022-07-23T15:59:04;26.90;99.90
5126;DHT22;2581;53.112;8.896;2022-07-23T16:01:29;27.00;99.90
5126;DHT22;2581;53.112;8.896;2022-07-23T16:03:56;27.00;99.90
5126;DHT22;2581;53.112;8.896;2022-07-23T16:06:24;27.10;99.90
5126;DHT22;2581;53.112;8.896;2022-07-23T16:08:51;27.20;99.90
5126;DHT22;2581;53.112;8.896;2022-07-23T16:11:16;27.20;99.90
5126;DHT22;2581;53.112;8.896;2022-07-23T16:13:43;27.10;99.90
5126;DHT22;2581;53.112;8.896;2022-07-23T16:16:10;27.10;99.90
5126;DHT22;2581;53.112;8.896;2022-07-23T16:18:36;27.00;99.90
5126;DHT22;2581;53.112;8.896;2022-07-23T16:21:02;27.00;99.90
5126;DHT22;2581;53.112;8.896;2022-07-23T16:23:28;27.00;99.90
5126;DHT22;2581;53.112;8.896;2022-07-23T16:25:54;26.90;99.90
5126;DHT22;2581;53.112;8.896;2022-07-23T16:28:20;26.80;99.90
5126;DHT22;2581;53.112;8.896;2022-07-23T16:30:46;26.80;99.90
5126;DHT22;2581;53.112;8.896;2022-07-23T16:33:12;26.70;99.90
5126;DHT22;2581;53.112;8.896;2022-07-23T16:35:37;26.70;99.90
5126;DHT22;2581;53.112;8.896;2022-07-23T16:38:03;26.60;99.90
5126;DHT22;2581;53.112;8.896;2022-07-23T16:40:31;26.60;99.90
5126;DHT22;2581;53.112;8.896;2022-07-23T16:42:59;26.60;99.90
5126;DHT22;2581;53.112;8.896;2022-07-23T16:45:25;26.60;99.90
5126;DHT22;2581;53.112;8.896;2022-07-23T16:47:50;26.50;99.90